EGPE Airport Information

Runway Information
Runway 05 Length 6191 ft width 151 ft
Elevation 30 ft Threshold 217 ft Heading 49
Runway 23 Length 6191 ft Width 151 ft
Elevation 21 ft Threshold ft Heading 229
Runway 11 Length 2297 ft width 59 ft
Elevation 31 ft Threshold ft Heading 110
Runway 29 Length 2297 ft Width 59 ft
Elevation 25 ft Threshold ft Heading 290
Airport Frequencies
Type APP Name APP Frequency 122.6 MHZ
Type ATIS Name ATIS Frequency 109.2 MHZ
Type RDR Name RDR Frequency 119.35 MHZ
Type TWR Name TWR Frequency 122.6 MHZ
Airport Navaids
Type VOR-DME Name Inverness Frequency 109200 KHZ
Type NDB Name Inverness Frequency 328 KHZ
Airport Weather Information & NOTAM
ADDS - METARS form results

(0019 UTC 08 August 2022)
Data provider http://aviationweather.gov/metar/data/
 
METAR text: EGPE 072350Z AUTO 21008KT 9999 OVC037/// 15/12 Q1023
Conditions at: EGPE (INVERNESS/DALCRO, GB) observed 2350 UTC 07 August 2022
Temperature: 15.0°C (59°F)
Dewpoint: 12.0°C (54°F) [RH = 82%]
Pressure (altimeter): 30.21 inches Hg (1023.0 mb)
Winds: from the SSW (210 degrees) at 9 MPH (8 knots; 4.1 m/s)
Visibility: 6 or more miles (10+ km)
Ceiling: 3700 feet AGL
Clouds: overcast cloud deck at 3700 feet AGL
Weather: no significant weather observed at this time

METAR text: EGPE 072320Z AUTO 22008KT 9999 BKN034/// 15/12 Q1023
Conditions at: EGPE (INVERNESS/DALCRO, GB) observed 2320 UTC 07 August 2022
Temperature: 15.0°C (59°F)
Dewpoint: 12.0°C (54°F) [RH = 82%]
Pressure (altimeter): 30.21 inches Hg (1023.0 mb)
Winds: from the SW (220 degrees) at 9 MPH (8 knots; 4.1 m/s)
Visibility: 6 or more miles (10+ km)
Ceiling: 3400 feet AGL
Clouds: broken clouds at 3400 feet AGL
Weather: no significant weather observed at this time

Forecast for: EGPE (INVERNESS/DALCRO, GB)
Text: TAF EGPE 072256Z 0800/0809 24012KT 9999 FEW025 BKN030
Forecast period: 0000 to 0900 UTC 08 August 2022
Forecast type: FROM: standard forecast or significant change
Winds: from the WSW (240 degrees) at 14 MPH (12 knots; 6.2 m/s)
Visibility: 6 or more miles (10+ km)
Ceiling: 3000 feet AGL
Clouds: few clouds at 2500 feet AGL
broken clouds at 3000 feet AGL
Weather: no significant weather forecast for this period
Text: PROB40
Forecast period: 0500 to 0900 UTC 08 August 2022
Forecast type: TEMPORARY: The following changes expected for less than half the time period
Winds: from the WSW (250 degrees) at 17 MPH (15 knots; 7.7 m/s)
gusting to 29 MPH (25 knots; 12.9 m/s)
Visibility: missing
Ceiling: unknown
Clouds: missing
Weather: no significant weather forecast for this period